sensor_id;sensor_type;location;lat;lon;timestamp;pressure;altitude;pressure_sealevel;temperature;humidity
20119;BME280;10220;42.716;23.306;2022-07-25T00:01:49;95297.81;;;26.51;100.00
20119;BME280;10220;42.716;23.306;2022-07-25T00:04:14;95287.69;;;26.53;100.00
20119;BME280;10220;42.716;23.306;2022-07-25T00:06:40;95273.50;;;26.44;100.00
20119;BME280;10220;42.716;23.306;2022-07-25T00:09:06;95301.31;;;26.73;100.00
20119;BME280;10220;42.716;23.306;2022-07-25T00:11:32;95288.41;;;26.67;100.00
20119;BME280;10220;42.716;23.306;2022-07-25T00:13:58;95294.72;;;26.71;100.00
20119;BME280;10220;42.716;23.306;2022-07-25T00:16:23;95296.84;;;26.47;100.00
20119;BME280;10220;42.716;23.306;2022-07-25T00:18:49;95294.47;;;26.32;100.00
20119;BME280;10220;42.716;23.306;2022-07-25T00:21:14;95301.88;;;26.22;100.00
20119;BME280;10220;42.716;23.306;2022-07-25T00:23:40;95280.63;;;26.35;100.00
20119;BME280;10220;42.716;23.306;2022-07-25T00:26:05;95270.75;;;26.22;100.00
20119;BME280;10220;42.716;23.306;2022-07-25T00:28:31;95285.78;;;26.27;100.00
20119;BME280;10220;42.716;23.306;2022-07-25T00:30:56;95266.03;;;25.93;100.00
20119;BME280;10220;42.716;23.306;2022-07-25T00:33:22;95264.59;;;25.55;100.00
20119;BME280;10220;42.716;23.306;2022-07-25T00:35:47;95254.78;;;25.69;100.00
20119;BME280;10220;42.716;23.306;2022-07-25T00:38:13;95244.94;;;25.56;100.00
20119;BME280;10220;42.716;23.306;2022-07-25T00:40:38;95248.06;;;25.58;100.00
20119;BME280;10220;42.716;23.306;2022-07-25T00:43:04;95258.00;;;25.52;100.00
20119;BME280;10220;42.716;23.306;2022-07-25T00:45:29;95271.78;;;25.54;100.00
20119;BME280;10220;42.716;23.306;2022-07-25T00:47:55;95271.78;;;25.68;100.00
20119;BME280;10220;42.716;23.306;2022-07-25T00:50:20;95247.38;;;25.52;100.00
20119;BME280;10220;42.716;23.306;2022-07-25T00:52:46;95291.69;;;25.70;100.00
20119;BME280;10220;42.716;23.306;2022-07-25T00:55:12;95273.81;;;25.89;100.00
20119;BME280;10220;42.716;23.306;2022-07-25T00:57:38;95277.94;;;25.95;100.00
20119;BME280;10220;42.716;23.306;2022-07-25T01:00:06;95257.28;;;25.79;100.00
20119;BME280;10220;42.716;23.306;2022-07-25T01:02:32;95271.19;;;25.12;100.00
20119;BME280;10220;42.716;23.306;2022-07-25T01:04:58;95266.25;;;25.38;100.00
20119;BME280;10220;42.716;23.306;2022-07-25T01:07:24;95263.63;;;25.01;100.00
20119;BME280;10220;42.716;23.306;2022-07-25T01:09:50;95266.38;;;25.14;100.00
20119;BME280;10220;42.716;23.306;2022-07-25T01:12:16;95182.81;;;24.48;100.00
20119;BME280;10220;42.716;23.306;2022-07-25T01:14:41;95260.47;;;24.85;100.00
20119;BME280;10220;42.716;23.306;2022-07-25T01:17:06;95236.03;;;25.02;100.00
20119;BME280;10220;42.716;23.306;2022-07-25T01:19:32;95201.31;;;24.85;100.00
20119;BME280;10220;42.716;23.306;2022-07-25T01:21:57;95237.41;;;24.68;100.00
20119;BME280;10220;42.716;23.306;2022-07-25T01:24:23;95246.00;;;24.60;100.00
20119;BME280;10220;42.716;23.306;2022-07-25T01:26:48;95263.13;;;24.67;100.00
20119;BME280;10220;42.716;23.306;2022-07-25T01:29:14;95262.97;;;24.40;100.00
20119;BME280;10220;42.716;23.306;2022-07-25T01:31:39;95242.59;;;24.36;100.00
20119;BME280;10220;42.716;23.306;2022-07-25T01:34:05;95262.19;;;24.58;100.00
20119;BME280;10220;42.716;23.306;2022-07-25T01:36:30;95260.38;;;24.54;100.00
20119;BME280;10220;42.716;23.306;2022-07-25T01:38:56;95254.31;;;24.53;100.00
20119;BME280;10220;42.716;23.306;2022-07-25T01:41:21;95262.19;;;24.40;100.00
20119;BME280;10220;42.716;23.306;2022-07-25T01:43:47;95247.38;;;24.39;100.00
20119;BME280;10220;42.716;23.306;2022-07-25T01:46:12;95266.34;;;24.64;100.00
20119;BME280;10220;42.716;23.306;2022-07-25T01:48:39;95269.97;;;24.68;100.00
20119;BME280;10220;42.716;23.306;2022-07-25T01:51:05;95272.88;;;24.53;100.00
20119;BME280;10220;42.716;23.306;2022-07-25T01:53:30;95223.56;;;24.34;100.00
20119;BME280;10220;42.716;23.306;2022-07-25T01:55:56;95227.50;;;24.36;100.00
20119;BME280;10220;42.716;23.306;2022-07-25T01:58:21;95265.75;;;24.85;100.00
20119;BME280;10220;42.716;23.306;2022-07-25T02:00:47;95269.03;;;24.59;100.00
20119;BME280;10220;42.716;23.306;2022-07-25T02:03:12;95250.22;;;24.61;100.00
20119;BME280;10220;42.716;23.306;2022-07-25T02:05:58;95273.09;;;24.75;100.00
20119;BME280;10220;42.716;23.306;2022-07-25T02:08:24;95275.38;;;24.82;100.00
20119;BME280;10220;42.716;23.306;2022-07-25T02:10:50;95273.56;;;24.77;100.00
20119;BME280;10220;42.716;23.306;2022-07-25T02:13:15;95237.28;;;24.91;100.00
20119;BME280;10220;42.716;23.306;2022-07-25T02:15:41;95274.91;;;25.43;100.00
20119;BME280;10220;42.716;23.306;2022-07-25T02:18:06;95285.66;;;25.65;100.00
20119;BME280;10220;42.716;23.306;2022-07-25T02:20:32;95274.00;;;25.79;100.00
20119;BME280;10220;42.716;23.306;2022-07-25T02:22:57;95278.72;;;25.96;100.00
20119;BME280;10220;42.716;23.306;2022-07-25T02:25:23;95268.00;;;25.74;100.00
20119;BME280;10220;42.716;23.306;2022-07-25T02:27:49;95280.03;;;25.08;100.00
20119;BME280;10220;42.716;23.306;2022-07-25T02:30:14;95289.34;;;24.87;100.00
20119;BME280;10220;42.716;23.306;2022-07-25T02:32:40;95270.41;;;25.12;100.00
20119;BME280;10220;42.716;23.306;2022-07-25T02:35:06;95273.03;;;25.43;100.00
20119;BME280;10220;42.716;23.306;2022-07-25T02:37:31;95252.41;;;24.90;100.00
20119;BME280;10220;42.716;23.306;2022-07-25T02:39:57;95272.13;;;24.84;100.00
20119;BME280;10220;42.716;23.306;2022-07-25T02:42:22;95274.81;;;24.66;100.00
20119;BME280;10220;42.716;23.306;2022-07-25T02:44:48;95229.88;;;23.96;100.00
20119;BME280;10220;42.716;23.306;2022-07-25T02:47:13;95269.88;;;23.95;100.00
20119;BME280;10220;42.716;23.306;2022-07-25T02:49:39;95221.53;;;23.61;100.00
20119;BME280;10220;42.716;23.306;2022-07-25T02:52:04;95266.19;;;23.96;100.00
20119;BME280;10220;42.716;23.306;2022-07-25T02:54:29;95281.25;;;23.72;100.00
20119;BME280;10220;42.716;23.306;2022-07-25T02:56:55;95278.88;;;23.42;100.00
20119;BME280;10220;42.716;23.306;2022-07-25T02:59:20;95270.00;;;23.57;100.00
20119;BME280;10220;42.716;23.306;2022-07-25T03:04:29;95240.72;;;23.48;100.00
20119;BME280;10220;42.716;23.306;2022-07-25T03:06:55;95267.56;;;23.37;100.00
20119;BME280;10220;42.716;23.306;2022-07-25T03:09:20;95271.47;;;23.16;100.00
20119;BME280;10220;42.716;23.306;2022-07-25T03:11:46;95235.31;;;23.06;100.00
20119;BME280;10220;42.716;23.306;2022-07-25T03:14:11;95283.41;;;23.08;100.00
20119;BME280;10220;42.716;23.306;2022-07-25T03:16:37;95288.16;;;23.11;100.00
20119;BME280;10220;42.716;23.306;2022-07-25T03:19:02;95265.25;;;22.97;100.00
20119;BME280;10220;42.716;23.306;2022-07-25T03:21:28;95286.34;;;23.07;100.00
20119;BME280;10220;42.716;23.306;2022-07-25T03:23:53;95290.63;;;22.98;100.00
20119;BME280;10220;42.716;23.306;2022-07-25T03:26:19;95271.38;;;22.88;100.00
20119;BME280;10220;42.716;23.306;2022-07-25T03:28:45;95270.78;;;22.96;100.00
20119;BME280;10220;42.716;23.306;2022-07-25T03:31:10;95285.34;;;22.98;100.00
20119;BME280;10220;42.716;23.306;2022-07-25T03:33:35;95281.44;;;22.91;100.00
20119;BME280;10220;42.716;23.306;2022-07-25T03:36:01;95280.59;;;22.95;100.00
20119;BME280;10220;42.716;23.306;2022-07-25T03:38:26;95282.56;;;22.80;100.00
20119;BME280;10220;42.716;23.306;2022-07-25T03:40:52;95274.25;;;23.01;100.00
20119;BME280;10220;42.716;23.306;2022-07-25T03:43:17;95280.13;;;22.88;100.00
20119;BME280;10220;42.716;23.306;2022-07-25T03:45:43;95280.16;;;22.83;100.00
20119;BME280;10220;42.716;23.306;2022-07-25T03:48:08;95286.94;;;22.99;100.00
20119;BME280;10220;42.716;23.306;2022-07-25T03:50:34;95295.78;;;23.18;100.00
20119;BME280;10220;42.716;23.306;2022-07-25T03:53:00;95287.47;;;23.01;100.00
20119;BME280;10220;42.716;23.306;2022-07-25T03:55:26;95289.81;;;23.03;100.00
20119;BME280;10220;42.716;23.306;2022-07-25T03:57:51;95287.19;;;23.03;100.00
20119;BME280;10220;42.716;23.306;2022-07-25T04:00:17;95281.78;;;23.12;100.00
20119;BME280;10220;42.716;23.306;2022-07-25T04:02:42;95296.63;;;23.08;100.00
20119;BME280;10220;42.716;23.306;2022-07-25T04:05:08;95276.88;;;23.01;100.00
20119;BME280;10220;42.716;23.306;2022-07-25T04:07:34;95278.38;;;23.12;100.00
20119;BME280;10220;42.716;23.306;2022-07-25T04:09:59;95249.88;;;23.04;100.00
20119;BME280;10220;42.716;23.306;2022-07-25T04:12:25;95285.38;;;23.26;100.00
20119;BME280;10220;42.716;23.306;2022-07-25T04:14:50;95274.19;;;23.34;100.00
20119;BME280;10220;42.716;23.306;2022-07-25T04:17:16;95286.06;;;23.37;100.00
20119;BME280;10220;42.716;23.306;2022-07-25T04:19:41;95279.25;;;23.59;100.00
20119;BME280;10220;42.716;23.306;2022-07-25T04:22:06;95270.06;;;23.52;100.00
20119;BME280;10220;42.716;23.306;2022-07-25T04:24:32;95285.88;;;23.57;100.00
20119;BME280;10220;42.716;23.306;2022-07-25T04:26:57;95267.31;;;23.62;100.00
20119;BME280;10220;42.716;23.306;2022-07-25T04:29:23;95293.66;;;23.76;100.00
20119;BME280;10220;42.716;23.306;2022-07-25T04:31:48;95276.47;;;23.97;100.00
20119;BME280;10220;42.716;23.306;2022-07-25T04:34:14;95276.34;;;23.84;100.00
20119;BME280;10220;42.716;23.306;2022-07-25T04:36:39;95263.41;;;23.82;100.00
20119;BME280;10220;42.716;23.306;2022-07-25T04:39:04;95291.75;;;24.05;100.00
20119;BME280;10220;42.716;23.306;2022-07-25T04:41:30;95275.22;;;24.13;100.00
20119;BME280;10220;42.716;23.306;2022-07-25T04:43:55;95277.50;;;24.01;100.00
20119;BME280;10220;42.716;23.306;2022-07-25T04:46:21;95285.78;;;23.95;100.00
20119;BME280;10220;42.716;23.306;2022-07-25T04:48:47;95269.97;;;24.08;100.00
20119;BME280;10220;42.716;23.306;2022-07-25T04:51:14;95282.81;;;24.20;100.00
20119;BME280;10220;42.716;23.306;2022-07-25T04:53:39;95301.97;;;24.58;100.00
20119;BME280;10220;42.716;23.306;2022-07-25T04:56:05;95284.06;;;25.00;100.00
20119;BME280;10220;42.716;23.306;2022-07-25T04:58:31;95279.16;;;25.44;100.00
20119;BME280;10220;42.716;23.306;2022-07-25T05:00:56;95280.59;;;25.95;100.00
20119;BME280;10220;42.716;23.306;2022-07-25T05:03:23;95297.31;;;26.22;98.89
20119;BME280;10220;42.716;23.306;2022-07-25T05:05:48;95290.44;;;26.08;98.09
20119;BME280;10220;42.716;23.306;2022-07-25T05:08:13;95289.84;;;25.98;100.00
20119;BME280;10220;42.716;23.306;2022-07-25T05:10:39;95284.47;;;26.64;95.07
20119;BME280;10220;42.716;23.306;2022-07-25T05:13:04;95294.19;;;26.82;93.51
20119;BME280;10220;42.716;23.306;2022-07-25T05:15:30;95291.00;;;26.94;94.07
20119;BME280;10220;42.716;23.306;2022-07-25T05:17:55;95284.91;;;26.93;91.04
20119;BME280;10220;42.716;23.306;2022-07-25T05:20:21;95296.44;;;27.24;91.05
20119;BME280;10220;42.716;23.306;2022-07-25T05:22:46;95292.66;;;27.47;89.71
20119;BME280;10220;42.716;23.306;2022-07-25T05:25:12;95298.47;;;27.49;88.57
20119;BME280;10220;42.716;23.306;2022-07-25T05:27:38;95297.09;;;28.12;85.16
20119;BME280;10220;42.716;23.306;2022-07-25T05:30:05;95299.75;;;28.12;81.76
20119;BME280;10220;42.716;23.306;2022-07-25T05:32:31;95286.25;;;28.08;81.02
20119;BME280;10220;42.716;23.306;2022-07-25T05:34:56;95296.09;;;28.30;81.26
20119;BME280;10220;42.716;23.306;2022-07-25T05:37:21;95288.81;;;27.83;82.80
20119;BME280;10220;42.716;23.306;2022-07-25T05:39:47;95287.13;;;27.95;78.71
20119;BME280;10220;42.716;23.306;2022-07-25T05:42:12;95279.13;;;27.95;80.04
20119;BME280;10220;42.716;23.306;2022-07-25T05:44:38;95276.03;;;28.41;76.95
20119;BME280;10220;42.716;23.306;2022-07-25T05:47:08;95280.72;;;28.44;77.21
20119;BME280;10220;42.716;23.306;2022-07-25T05:49:33;95244.97;;;28.61;75.91
20119;BME280;10220;42.716;23.306;2022-07-25T05:51:59;95284.72;;;28.80;75.87
20119;BME280;10220;42.716;23.306;2022-07-25T05:54:24;95293.16;;;28.48;77.77
20119;BME280;10220;42.716;23.306;2022-07-25T05:56:49;95282.41;;;29.04;70.97
20119;BME280;10220;42.716;23.306;2022-07-25T05:59:15;95290.72;;;28.77;71.60
20119;BME280;10220;42.716;23.306;2022-07-25T06:01:40;95297.16;;;29.09;71.90
20119;BME280;10220;42.716;23.306;2022-07-25T06:04:06;95254.13;;;28.94;71.37
20119;BME280;10220;42.716;23.306;2022-07-25T06:06:31;95288.69;;;29.24;70.40
20119;BME280;10220;42.716;23.306;2022-07-25T06:08:57;95276.91;;;29.00;69.20
20119;BME280;10220;42.716;23.306;2022-07-25T06:11:22;95277.38;;;29.10;68.31
20119;BME280;10220;42.716;23.306;2022-07-25T06:13:50;95279.03;;;28.64;73.09
20119;BME280;10220;42.716;23.306;2022-07-25T06:16:16;95280.34;;;29.01;71.97
20119;BME280;10220;42.716;23.306;2022-07-25T06:18:41;95278.63;;;29.30;70.19
20119;BME280;10220;42.716;23.306;2022-07-25T06:21:07;95287.31;;;28.46;75.31
20119;BME280;10220;42.716;23.306;2022-07-25T06:23:32;95284.50;;;28.43;73.65
20119;BME280;10220;42.716;23.306;2022-07-25T06:25:58;95277.78;;;28.62;73.30
20119;BME280;10220;42.716;23.306;2022-07-25T06:28:23;95278.75;;;28.10;79.50
20119;BME280;10220;42.716;23.306;2022-07-25T06:30:49;95279.63;;;28.36;76.89
20119;BME280;10220;42.716;23.306;2022-07-25T06:33:14;95272.91;;;28.00;80.24
20119;BME280;10220;42.716;23.306;2022-07-25T06:35:40;95275.91;;;28.07;79.88
20119;BME280;10220;42.716;23.306;2022-07-25T06:38:05;95256.09;;;27.91;81.24
20119;BME280;10220;42.716;23.306;2022-07-25T06:40:31;95284.69;;;27.69;84.26
20119;BME280;10220;42.716;23.306;2022-07-25T06:42:56;95290.75;;;27.61;83.81
20119;BME280;10220;42.716;23.306;2022-07-25T06:45:22;95263.38;;;27.47;84.51
20119;BME280;10220;42.716;23.306;2022-07-25T06:47:47;95265.28;;;27.77;83.68
20119;BME280;10220;42.716;23.306;2022-07-25T06:50:15;95270.25;;;27.70;84.10
20119;BME280;10220;42.716;23.306;2022-07-25T06:52:43;95283.88;;;27.68;85.52
20119;BME280;10220;42.716;23.306;2022-07-25T06:55:11;95265.72;;;27.70;82.65
20119;BME280;10220;42.716;23.306;2022-07-25T06:57:37;95275.88;;;27.68;83.95
20119;BME280;10220;42.716;23.306;2022-07-25T07:00:04;95212.25;;;27.58;82.86
20119;BME280;10220;42.716;23.306;2022-07-25T07:02:32;95273.91;;;27.82;84.59
20119;BME280;10220;42.716;23.306;2022-07-25T07:04:58;95221.31;;;27.57;84.22
20119;BME280;10220;42.716;23.306;2022-07-25T07:07:23;95265.69;;;28.00;81.67
20119;BME280;10220;42.716;23.306;2022-07-25T07:09:49;95253.31;;;28.04;83.14
20119;BME280;10220;42.716;23.306;2022-07-25T07:12:14;95254.50;;;28.37;79.72
20119;BME280;10220;42.716;23.306;2022-07-25T07:14:39;95257.44;;;28.74;75.90
20119;BME280;10220;42.716;23.306;2022-07-25T07:17:06;95259.00;;;28.84;74.09
20119;BME280;10220;42.716;23.306;2022-07-25T07:19:31;95262.47;;;28.84;74.17
20119;BME280;10220;42.716;23.306;2022-07-25T07:21:57;95217.41;;;28.74;74.64
20119;BME280;10220;42.716;23.306;2022-07-25T07:24:22;95249.88;;;29.10;72.68
20119;BME280;10220;42.716;23.306;2022-07-25T07:26:47;95247.69;;;29.20;70.57
20119;BME280;10220;42.716;23.306;2022-07-25T07:29:13;95249.25;;;29.05;72.31
20119;BME280;10220;42.716;23.306;2022-07-25T07:31:39;95240.13;;;29.22;70.56
20119;BME280;10220;42.716;23.306;2022-07-25T07:34:05;95246.56;;;29.84;65.73
20119;BME280;10220;42.716;23.306;2022-07-25T07:36:30;95244.94;;;29.63;66.84
20119;BME280;10220;42.716;23.306;2022-07-25T07:38:56;95239.69;;;29.74;63.11
20119;BME280;10220;42.716;23.306;2022-07-25T07:41:21;95240.72;;;29.99;63.03
20119;BME280;10220;42.716;23.306;2022-07-25T07:43:46;95246.66;;;30.13;62.44
20119;BME280;10220;42.716;23.306;2022-07-25T07:46:12;95229.09;;;29.95;63.34
20119;BME280;10220;42.716;23.306;2022-07-25T07:48:37;95255.72;;;29.74;66.56
20119;BME280;10220;42.716;23.306;2022-07-25T07:51:03;95253.34;;;29.90;62.40
20119;BME280;10220;42.716;23.306;2022-07-25T07:53:29;95238.22;;;30.02;64.17
20119;BME280;10220;42.716;23.306;2022-07-25T07:56:14;95204.97;;;30.03;60.04
20119;BME280;10220;42.716;23.306;2022-07-25T07:58:40;95230.03;;;30.27;62.98
20119;BME280;10220;42.716;23.306;2022-07-25T08:01:06;95245.75;;;30.29;59.20
20119;BME280;10220;42.716;23.306;2022-07-25T08:03:32;95234.94;;;29.80;61.07
20119;BME280;10220;42.716;23.306;2022-07-25T08:05:57;95237.69;;;29.63;62.44
20119;BME280;10220;42.716;23.306;2022-07-25T08:08:23;95227.94;;;30.41;59.28
20119;BME280;10220;42.716;23.306;2022-07-25T08:10:48;95233.19;;;30.29;60.91
20119;BME280;10220;42.716;23.306;2022-07-25T08:13:21;95232.97;;;30.43;59.16
20119;BME280;10220;42.716;23.306;2022-07-25T08:15:50;95226.38;;;30.61;58.68
20119;BME280;10220;42.716;23.306;2022-07-25T08:18:16;95233.63;;;30.03;57.61
20119;BME280;10220;42.716;23.306;2022-07-25T08:20:42;95241.31;;;30.04;58.96
20119;BME280;10220;42.716;23.306;2022-07-25T08:23:08;95234.19;;;29.71;60.72
20119;BME280;10220;42.716;23.306;2022-07-25T08:25:35;95238.31;;;30.06;61.18
20119;BME280;10220;42.716;23.306;2022-07-25T08:28:00;95210.63;;;30.30;57.39
20119;BME280;10220;42.716;23.306;2022-07-25T08:30:26;95229.91;;;30.73;57.76
20119;BME280;10220;42.716;23.306;2022-07-25T08:32:57;95216.59;;;30.65;55.81
20119;BME280;10220;42.716;23.306;2022-07-25T08:35:25;95238.47;;;30.87;56.65
20119;BME280;10220;42.716;23.306;2022-07-25T08:37:51;95234.06;;;30.83;53.31
20119;BME280;10220;42.716;23.306;2022-07-25T08:40:18;95229.19;;;30.07;55.29
20119;BME280;10220;42.716;23.306;2022-07-25T08:42:44;95230.03;;;30.77;55.93
20119;BME280;10220;42.716;23.306;2022-07-25T08:45:12;95240.19;;;31.24;53.91
20119;BME280;10220;42.716;23.306;2022-07-25T08:47:40;95242.84;;;31.12;54.86
20119;BME280;10220;42.716;23.306;2022-07-25T08:50:12;95231.84;;;31.69;52.46
20119;BME280;10220;42.716;23.306;2022-07-25T08:52:38;95224.22;;;32.15;51.01
20119;BME280;10220;42.716;23.306;2022-07-25T08:55:09;95230.78;;;32.42;49.01
20119;BME280;10220;42.716;23.306;2022-07-25T08:57:36;95230.41;;;31.72;49.79
20119;BME280;10220;42.716;23.306;2022-07-25T09:00:06;95217.75;;;31.60;52.56
20119;BME280;10220;42.716;23.306;2022-07-25T09:02:31;95231.25;;;31.20;52.43
20119;BME280;10220;42.716;23.306;2022-07-25T09:04:57;95221.81;;;31.02;54.54
20119;BME280;10220;42.716;23.306;2022-07-25T09:07:30;95209.44;;;31.09;54.50
20119;BME280;10220;42.716;23.306;2022-07-25T09:09:56;95215.13;;;31.40;53.80
20119;BME280;10220;42.716;23.306;2022-07-25T09:12:27;95205.13;;;31.49;52.24
20119;BME280;10220;42.716;23.306;2022-07-25T09:14:53;95211.94;;;31.47;50.71
20119;BME280;10220;42.716;23.306;2022-07-25T09:17:18;95210.72;;;31.24;50.37
20119;BME280;10220;42.716;23.306;2022-07-25T09:19:52;95193.66;;;31.28;50.63
20119;BME280;10220;42.716;23.306;2022-07-25T09:22:17;95213.50;;;31.48;51.44
20119;BME280;10220;42.716;23.306;2022-07-25T09:24:44;95194.44;;;31.61;50.15
20119;BME280;10220;42.716;23.306;2022-07-25T09:27:10;95195.41;;;31.68;50.17
20119;BME280;10220;42.716;23.306;2022-07-25T09:29:38;95193.63;;;31.72;50.46
20119;BME280;10220;42.716;23.306;2022-07-25T09:32:21;95195.09;;;32.29;49.27
20119;BME280;10220;42.716;23.306;2022-07-25T09:34:47;95188.81;;;32.61;45.74
20119;BME280;10220;42.716;23.306;2022-07-25T09:37:16;95191.06;;;32.86;44.34
20119;BME280;10220;42.716;23.306;2022-07-25T09:39:48;95197.19;;;32.72;45.02
20119;BME280;10220;42.716;23.306;2022-07-25T09:42:26;95188.28;;;32.56;44.22
20119;BME280;10220;42.716;23.306;2022-07-25T09:45:03;95197.59;;;32.11;44.73
20119;BME280;10220;42.716;23.306;2022-07-25T09:47:30;95189.28;;;31.92;45.34
20119;BME280;10220;42.716;23.306;2022-07-25T09:49:56;95186.41;;;32.09;43.21
20119;BME280;10220;42.716;23.306;2022-07-25T09:52:22;95193.97;;;31.71;44.96
20119;BME280;10220;42.716;23.306;2022-07-25T09:54:48;95188.31;;;32.20;44.33
20119;BME280;10220;42.716;23.306;2022-07-25T09:57:14;95183.22;;;32.42;44.71
20119;BME280;10220;42.716;23.306;2022-07-25T09:59:39;95170.94;;;32.41;45.38
20119;BME280;10220;42.716;23.306;2022-07-25T10:02:14;95167.50;;;31.57;46.23
20119;BME280;10220;42.716;23.306;2022-07-25T10:05:03;95184.13;;;31.51;47.68
20119;BME280;10220;42.716;23.306;2022-07-25T10:07:36;95162.75;;;31.99;46.70
20119;BME280;10220;42.716;23.306;2022-07-25T10:10:03;95180.09;;;32.64;45.07
20119;BME280;10220;42.716;23.306;2022-07-25T10:12:29;95176.72;;;33.06;44.39
20119;BME280;10220;42.716;23.306;2022-07-25T10:15:07;95171.78;;;33.08;43.53
20119;BME280;10220;42.716;23.306;2022-07-25T10:17:35;95173.91;;;33.30;41.64
20119;BME280;10220;42.716;23.306;2022-07-25T10:20:02;95169.53;;;33.26;41.82
20119;BME280;10220;42.716;23.306;2022-07-25T10:22:44;95163.63;;;33.63;40.82
20119;BME280;10220;42.716;23.306;2022-07-25T10:25:17;95160.41;;;33.57;40.71
20119;BME280;10220;42.716;23.306;2022-07-25T10:27:46;95161.53;;;32.47;43.16
20119;BME280;10220;42.716;23.306;2022-07-25T10:30:19;95158.66;;;32.79;42.15
20119;BME280;10220;42.716;23.306;2022-07-25T10:33:15;95150.06;;;32.35;42.65
20119;BME280;10220;42.716;23.306;2022-07-25T10:35:42;95152.75;;;32.35;41.91
20119;BME280;10220;42.716;23.306;2022-07-25T10:38:08;95150.59;;;32.52;41.40
20119;BME280;10220;42.716;23.306;2022-07-25T10:40:41;95145.97;;;32.65;41.36
20119;BME280;10220;42.716;23.306;2022-07-25T10:43:12;95160.63;;;32.55;41.85
20119;BME280;10220;42.716;23.306;2022-07-25T10:45:50;95153.63;;;32.39;42.22
20119;BME280;10220;42.716;23.306;2022-07-25T10:48:27;95153.53;;;32.23;42.01
20119;BME280;10220;42.716;23.306;2022-07-25T10:51:02;95152.75;;;32.11;41.58
20119;BME280;10220;42.716;23.306;2022-07-25T10:53:45;95109.16;;;32.02;40.55
20119;BME280;10220;42.716;23.306;2022-07-25T10:56:19;95139.44;;;32.26;39.00
20119;BME280;10220;42.716;23.306;2022-07-25T11:01:12;95115.34;;;33.08;39.45
20119;BME280;10220;42.716;23.306;2022-07-25T11:03:41;95145.34;;;34.18;37.12
20119;BME280;10220;42.716;23.306;2022-07-25T11:06:11;95126.38;;;34.64;36.35
20119;BME280;10220;42.716;23.306;2022-07-25T11:08:37;95120.84;;;34.23;36.33
20119;BME280;10220;42.716;23.306;2022-07-25T11:11:03;95121.84;;;34.68;37.11
20119;BME280;10220;42.716;23.306;2022-07-25T11:13:29;95109.31;;;35.16;36.54
20119;BME280;10220;42.716;23.306;2022-07-25T11:15:57;95109.31;;;35.58;36.22
20119;BME280;10220;42.716;23.306;2022-07-25T11:18:40;95090.72;;;35.75;35.99
20119;BME280;10220;42.716;23.306;2022-07-25T11:21:07;95072.91;;;35.04;36.18
20119;BME280;10220;42.716;23.306;2022-07-25T11:23:49;95113.22;;;34.44;36.31
20119;BME280;10220;42.716;23.306;2022-07-25T11:26:16;95103.94;;;33.73;37.98
20119;BME280;10220;42.716;23.306;2022-07-25T11:28:49;95110.03;;;34.38;36.59
20119;BME280;10220;42.716;23.306;2022-07-25T11:31:16;95110.97;;;35.21;35.73
20119;BME280;10220;42.716;23.306;2022-07-25T11:33:45;95116.28;;;35.17;35.80
20119;BME280;10220;42.716;23.306;2022-07-25T11:36:11;95095.81;;;34.03;36.24
20119;BME280;10220;42.716;23.306;2022-07-25T11:38:39;95101.91;;;33.70;37.78
20119;BME280;10220;42.716;23.306;2022-07-25T11:41:05;95105.81;;;33.26;39.37
20119;BME280;10220;42.716;23.306;2022-07-25T11:43:31;95118.41;;;32.95;40.08
20119;BME280;10220;42.716;23.306;2022-07-25T11:48:32;95108.06;;;32.42;41.77
20119;BME280;10220;42.716;23.306;2022-07-25T11:51:10;95107.63;;;32.52;41.92
20119;BME280;10220;42.716;23.306;2022-07-25T11:53:40;95058.63;;;32.43;40.96
20119;BME280;10220;42.716;23.306;2022-07-25T11:56:14;95097.34;;;32.70;40.66
20119;BME280;10220;42.716;23.306;2022-07-25T11:58:41;95075.50;;;32.56;41.82
20119;BME280;10220;42.716;23.306;2022-07-25T12:01:13;95103.66;;;32.62;41.43
20119;BME280;10220;42.716;23.306;2022-07-25T12:03:40;95096.41;;;32.77;40.03
20119;BME280;10220;42.716;23.306;2022-07-25T12:06:10;95081.66;;;32.56;41.59
20119;BME280;10220;42.716;23.306;2022-07-25T12:08:40;95079.94;;;32.64;41.75
20119;BME280;10220;42.716;23.306;2022-07-25T12:11:17;95078.19;;;32.56;42.33
20119;BME280;10220;42.716;23.306;2022-07-25T12:13:42;95086.19;;;32.68;41.79
20119;BME280;10220;42.716;23.306;2022-07-25T12:16:08;95079.94;;;32.64;41.25
20119;BME280;10220;42.716;23.306;2022-07-25T12:18:33;95078.72;;;32.61;40.28
20119;BME280;10220;42.716;23.306;2022-07-25T12:20:58;95072.41;;;32.42;39.77
20119;BME280;10220;42.716;23.306;2022-07-25T12:23:24;95062.22;;;31.96;40.64
20119;BME280;10220;42.716;23.306;2022-07-25T12:25:50;95073.44;;;32.25;40.72
20119;BME280;10220;42.716;23.306;2022-07-25T12:28:15;95067.78;;;32.15;40.17
20119;BME280;10220;42.716;23.306;2022-07-25T12:30:42;95064.03;;;32.31;39.89
20119;BME280;10220;42.716;23.306;2022-07-25T12:33:08;95067.56;;;32.47;39.78
20119;BME280;10220;42.716;23.306;2022-07-25T12:35:34;95062.41;;;32.54;39.64
20119;BME280;10220;42.716;23.306;2022-07-25T12:38:03;95053.66;;;32.30;37.62
20119;BME280;10220;42.716;23.306;2022-07-25T12:40:29;95063.22;;;32.43;38.39
20119;BME280;10220;42.716;23.306;2022-07-25T12:42:54;95062.56;;;32.07;41.49
20119;BME280;10220;42.716;23.306;2022-07-25T12:45:21;95050.22;;;32.17;41.43
20119;BME280;10220;42.716;23.306;2022-07-25T12:47:47;95055.94;;;32.43;41.01
20119;BME280;10220;42.716;23.306;2022-07-25T12:50:14;95051.16;;;32.10;40.53
20119;BME280;10220;42.716;23.306;2022-07-25T12:52:41;95049.78;;;32.15;41.30